sensor_id;sensor_type;location;lat;lon;timestamp;pressure;altitude;pressure_sealevel;temperature;humidity
54980;BME280;44101;50.462;30.432;2022-09-12T00:00:41;97961.59;;;12.74;84.59
54980;BME280;44101;50.462;30.432;2022-09-12T00:03:07;97959.94;;;12.73;84.93
54980;BME280;44101;50.462;30.432;2022-09-12T00:05:33;97954.53;;;12.73;84.14
54980;BME280;44101;50.462;30.432;2022-09-12T00:07:59;97964.28;;;12.74;84.40
54980;BME280;44101;50.462;30.432;2022-09-12T00:10:25;97982.81;;;12.77;84.46
54980;BME280;44101;50.462;30.432;2022-09-12T00:12:51;97985.88;;;12.81;84.59
54980;BME280;44101;50.462;30.432;2022-09-12T00:15:17;97994.59;;;12.83;84.31
54980;BME280;44101;50.462;30.432;2022-09-12T00:17:43;97989.44;;;12.82;84.51
54980;BME280;44101;50.462;30.432;2022-09-12T00:20:10;97984.25;;;12.80;84.56
54980;BME280;44101;50.462;30.432;2022-09-12T00:22:36;97988.59;;;12.81;84.61
54980;BME280;44101;50.462;30.432;2022-09-12T00:25:03;97979.88;;;12.79;84.67
54980;BME280;44101;50.462;30.432;2022-09-12T00:27:29;97959.72;;;12.75;84.53
54980;BME280;44101;50.462;30.432;2022-09-12T00:29:54;97961.59;;;12.74;84.65
54980;BME280;44101;50.462;30.432;2022-09-12T00:32:20;97945.81;;;12.71;84.83
54980;BME280;44101;50.462;30.432;2022-09-12T00:34:46;97947.69;;;12.71;84.78
54980;BME280;44101;50.462;30.432;2022-09-12T00:37:12;97943.34;;;12.70;85.32
54980;BME280;44101;50.462;30.432;2022-09-12T00:39:38;97939.81;;;12.69;84.86
54980;BME280;44101;50.462;30.432;2022-09-12T00:42:04;97948.53;;;12.71;84.94
54980;BME280;44101;50.462;30.432;2022-09-12T00:47:05;97974.09;;;12.75;85.12
54980;BME280;44101;50.462;30.432;2022-09-12T00:49:54;97975.75;;;12.76;85.52
54980;BME280;44101;50.462;30.432;2022-09-12T00:52:26;97980.09;;;12.77;85.04
54980;BME280;44101;50.462;30.432;2022-09-12T00:55:15;97964.28;;;12.74;84.89
54980;BME280;44101;50.462;30.432;2022-09-12T00:58:04;97964.53;;;12.73;85.49
54980;BME280;44101;50.462;30.432;2022-09-12T01:00:33;97946.25;;;12.68;85.18
54980;BME280;44101;50.462;30.432;2022-09-12T01:03:01;97940.84;;;12.68;85.57
54980;BME280;44101;50.462;30.432;2022-09-12T01:05:30;97936.47;;;12.67;85.62
54980;BME280;44101;50.462;30.432;2022-09-12T01:08:00;97936.69;;;12.65;85.72
54980;BME280;44101;50.462;30.432;2022-09-12T01:10:27;97933.19;;;12.65;85.11
54980;BME280;44101;50.462;30.432;2022-09-12T01:12:52;97908.47;;;12.61;85.53
54980;BME280;44101;50.462;30.432;2022-09-12T01:15:18;97910.53;;;12.59;85.72
54980;BME280;44101;50.462;30.432;2022-09-12T01:27:12;97882.53;;;12.54;85.48
54980;BME280;44101;50.462;30.432;2022-09-12T01:33:06;97861.56;;;12.49;85.71
54980;BME280;44101;50.462;30.432;2022-09-12T01:38:19;97865.53;;;12.46;85.58
54980;BME280;44101;50.462;30.432;2022-09-12T01:44:20;97808.06;;;12.32;85.08
54980;BME280;44101;50.462;30.432;2022-09-12T01:46:56;97792.25;;;12.29;85.64
54980;BME280;44101;50.462;30.432;2022-09-12T01:55:32;97757.63;;;12.19;85.45
54980;BME280;44101;50.462;30.432;2022-09-12T01:58:12;97751.66;;;12.17;85.50
54980;BME280;44101;50.462;30.432;2022-09-12T02:01:10;97749.16;;;12.16;84.88
54980;BME280;44101;50.462;30.432;2022-09-12T02:04:08;97743.38;;;12.12;85.60
54980;BME280;44101;50.462;30.432;2022-09-12T02:06:43;97740.66;;;12.12;85.04
54980;BME280;44101;50.462;30.432;2022-09-12T02:09:18;97737.38;;;12.10;85.48
54980;BME280;44101;50.462;30.432;2022-09-12T02:11:46;97734.69;;;12.10;85.15
54980;BME280;44101;50.462;30.432;2022-09-12T02:14:21;97733.03;;;12.09;85.00
54980;BME280;44101;50.462;30.432;2022-09-12T02:16:52;97730.75;;;12.06;85.80
54980;BME280;44101;50.462;30.432;2022-09-12T02:19:23;97718.50;;;12.03;85.48
54980;BME280;44101;50.462;30.432;2022-09-12T02:21:58;97717.69;;;12.03;85.63
54980;BME280;44101;50.462;30.432;2022-09-12T02:24:27;97712.72;;;12.00;85.28
54980;BME280;44101;50.462;30.432;2022-09-12T02:27:02;97706.47;;;11.99;85.46
54980;BME280;44101;50.462;30.432;2022-09-12T02:29:30;97710.00;;;12.00;85.53
54980;BME280;44101;50.462;30.432;2022-09-12T02:32:05;97716.47;;;11.98;85.69
54980;BME280;44101;50.462;30.432;2022-09-12T02:34:44;97713.97;;;11.97;85.23
54980;BME280;44101;50.462;30.432;2022-09-12T02:37:37;97708.78;;;11.95;85.36
54980;BME280;44101;50.462;30.432;2022-09-12T02:40:05;97709.84;;;11.94;85.73
54980;BME280;44101;50.462;30.432;2022-09-12T02:42:33;97697.59;;;11.92;85.24
54980;BME280;44101;50.462;30.432;2022-09-12T02:44:59;97680.22;;;11.88;85.22
54980;BME280;44101;50.462;30.432;2022-09-12T02:47:30;97680.44;;;11.86;85.69
54980;BME280;44101;50.462;30.432;2022-09-12T02:49:59;97679.81;;;11.84;85.52
54980;BME280;44101;50.462;30.432;2022-09-12T02:52:26;97676.28;;;11.83;85.85
54980;BME280;44101;50.462;30.432;2022-09-12T02:54:52;97680.06;;;11.82;85.09
54980;BME280;44101;50.462;30.432;2022-09-12T02:57:20;97676.50;;;11.82;85.76
54980;BME280;44101;50.462;30.432;2022-09-12T02:59:46;97676.72;;;11.80;85.91
54980;BME280;44101;50.462;30.432;2022-09-12T03:05:20;97661.41;;;11.74;85.65
54980;BME280;44101;50.462;30.432;2022-09-12T03:10:46;97656.47;;;11.71;85.77
54980;BME280;44101;50.462;30.432;2022-09-12T03:29:10;97647.38;;;11.65;85.61
54980;BME280;44101;50.462;30.432;2022-09-12T03:31:47;97526.00;;;11.33;86.05
54980;BME280;44101;50.462;30.432;2022-09-12T03:34:13;97421.66;;;11.08;85.99
54980;BME280;44101;50.462;30.432;2022-09-12T03:36:38;97306.84;;;10.75;86.05
54980;BME280;44101;50.462;30.432;2022-09-12T03:39:05;97285.59;;;10.67;85.35
54980;BME280;44101;50.462;30.432;2022-09-12T03:41:31;97199.56;;;10.46;85.22
54980;BME280;44101;50.462;30.432;2022-09-12T03:43:56;97146.03;;;10.31;85.49
54980;BME280;44101;50.462;30.432;2022-09-12T03:46:22;97130.53;;;10.27;85.11
54980;BME280;44101;50.462;30.432;2022-09-12T03:48:47;97121.47;;;10.21;85.55
54980;BME280;44101;50.462;30.432;2022-09-12T03:51:15;97072.09;;;10.08;85.19
54980;BME280;44101;50.462;30.432;2022-09-12T03:53:40;97054.63;;;9.99;84.88
54980;BME280;44101;50.462;30.432;2022-09-12T03:56:10;97034.00;;;9.93;85.37
54980;BME280;44101;50.462;30.432;2022-09-12T03:58:36;97037.75;;;9.92;84.92
54980;BME280;44101;50.462;30.432;2022-09-12T04:01:09;96968.78;;;9.72;85.29
54980;BME280;44101;50.462;30.432;2022-09-12T04:03:48;96980.63;;;9.71;85.19
54980;BME280;44101;50.462;30.432;2022-09-12T04:06:17;96991.38;;;9.71;85.17
54980;BME280;44101;50.462;30.432;2022-09-12T04:08:43;97005.47;;;9.73;85.14
54980;BME280;44101;50.462;30.432;2022-09-12T04:11:11;97010.22;;;9.71;85.03
54980;BME280;44101;50.462;30.432;2022-09-12T04:13:38;97000.13;;;9.66;84.72
54980;BME280;44101;50.462;30.432;2022-09-12T04:16:04;96964.84;;;9.56;84.28
54980;BME280;44101;50.462;30.432;2022-09-12T04:18:31;96965.06;;;9.54;84.24
54980;BME280;44101;50.462;30.432;2022-09-12T04:20:57;96975.25;;;9.52;84.88
54980;BME280;44101;50.462;30.432;2022-09-12T04:23:23;96979.00;;;9.51;84.39
54980;BME280;44101;50.462;30.432;2022-09-12T04:25:56;97013.31;;;9.56;84.51
54980;BME280;44101;50.462;30.432;2022-09-12T04:28:22;97010.03;;;9.54;84.31
54980;BME280;44101;50.462;30.432;2022-09-12T04:30:48;97013.97;;;9.51;84.73
54980;BME280;44101;50.462;30.432;2022-09-12T04:33:14;97040.22;;;9.56;84.10
54980;BME280;44101;50.462;30.432;2022-09-12T04:35:40;97049.13;;;9.57;84.73
54980;BME280;44101;50.462;30.432;2022-09-12T04:38:06;97070.19;;;9.60;84.46
54980;BME280;44101;50.462;30.432;2022-09-12T04:40:32;97077.47;;;9.59;84.75
54980;BME280;44101;50.462;30.432;2022-09-12T04:42:58;97068.41;;;9.53;83.96
54980;BME280;44101;50.462;30.432;2022-09-12T04:45:24;97086.81;;;9.57;84.11
54980;BME280;44101;50.462;30.432;2022-09-12T04:47:50;97112.22;;;9.61;84.53
54980;BME280;44101;50.462;30.432;2022-09-12T04:50:16;97125.66;;;9.61;83.84
54980;BME280;44101;50.462;30.432;2022-09-12T04:52:41;97135.63;;;9.60;84.45
54980;BME280;44101;50.462;30.432;2022-09-12T04:55:07;97157.53;;;9.64;83.94
54980;BME280;44101;50.462;30.432;2022-09-12T04:57:34;97183.78;;;9.68;84.40
54980;BME280;44101;50.462;30.432;2022-09-12T05:00:00;97202.41;;;9.70;84.53
54980;BME280;44101;50.462;30.432;2022-09-12T05:02:26;97192.91;;;9.67;84.24
54980;BME280;44101;50.462;30.432;2022-09-12T05:04:53;97214.25;;;9.69;84.35
54980;BME280;44101;50.462;30.432;2022-09-12T05:07:19;97220.44;;;9.69;84.01
54980;BME280;44101;50.462;30.432;2022-09-12T05:09:44;97238.84;;;9.73;84.02
54980;BME280;44101;50.462;30.432;2022-09-12T05:12:10;97269.69;;;9.77;84.08
54980;BME280;44101;50.462;30.432;2022-09-12T05:14:36;97277.50;;;9.78;84.39
54980;BME280;44101;50.462;30.432;2022-09-12T05:17:03;97309.19;;;9.83;84.19
54980;BME280;44101;50.462;30.432;2022-09-12T05:19:30;97344.75;;;9.92;83.90
54980;BME280;44101;50.462;30.432;2022-09-12T05:21:56;97389.41;;;10.00;83.81
54980;BME280;44101;50.462;30.432;2022-09-12T05:24:22;97436.41;;;10.11;84.25
54980;BME280;44101;50.462;30.432;2022-09-12T05:26:49;97478.44;;;10.18;84.06
54980;BME280;44101;50.462;30.432;2022-09-12T05:29:15;97503.88;;;10.22;83.75
54980;BME280;44101;50.462;30.432;2022-09-12T05:31:41;97521.25;;;10.27;84.19
54980;BME280;44101;50.462;30.432;2022-09-12T05:34:06;97529.16;;;10.28;83.72
54980;BME280;44101;50.462;30.432;2022-09-12T05:36:33;97523.13;;;10.26;84.08
54980;BME280;44101;50.462;30.432;2022-09-12T05:38:59;97540.94;;;10.27;83.84
54980;BME280;44101;50.462;30.432;2022-09-12T05:41:28;97555.03;;;10.29;84.31
54980;BME280;44101;50.462;30.432;2022-09-12T05:43:56;97577.84;;;10.33;83.71
54980;BME280;44101;50.462;30.432;2022-09-12T05:46:25;97589.00;;;10.37;84.30
54980;BME280;44101;50.462;30.432;2022-09-12T05:48:51;97609.31;;;10.40;84.04
54980;BME280;44101;50.462;30.432;2022-09-12T05:51:20;97632.09;;;10.44;84.23
54980;BME280;44101;50.462;30.432;2022-09-12T05:53:49;97641.03;;;10.44;84.20
54980;BME280;44101;50.462;30.432;2022-09-12T05:56:18;97686.19;;;10.56;84.34
54980;BME280;44101;50.462;30.432;2022-09-12T05:58:46;97756.81;;;10.71;83.86
54980;BME280;44101;50.462;30.432;2022-09-12T06:01:17;97835.56;;;10.94;83.55
54980;BME280;44101;50.462;30.432;2022-09-12T06:03:45;97942.81;;;11.19;83.56
54980;BME280;44101;50.462;30.432;2022-09-12T06:06:12;97997.56;;;11.33;84.23
54980;BME280;44101;50.462;30.432;2022-09-12T06:08:39;97975.56;;;11.29;84.08
54980;BME280;44101;50.462;30.432;2022-09-12T06:11:07;97987.81;;;11.32;83.81
54980;BME280;44101;50.462;30.432;2022-09-12T06:13:35;98017.72;;;11.37;83.69
54980;BME280;44101;50.462;30.432;2022-09-12T06:16:07;97949.88;;;11.20;83.25
54980;BME280;44101;50.462;30.432;2022-09-12T06:18:34;97921.03;;;11.13;83.60
54980;BME280;44101;50.462;30.432;2022-09-12T06:21:05;97920.19;;;11.13;83.18
54980;BME280;44101;50.462;30.432;2022-09-12T06:23:31;97909.59;;;11.11;83.52
54980;BME280;44101;50.462;30.432;2022-09-12T06:25:58;97930.34;;;11.17;83.47
54980;BME280;44101;50.462;30.432;2022-09-12T06:28:24;97937.63;;;11.17;83.17
54980;BME280;44101;50.462;30.432;2022-09-12T06:30:50;97942.59;;;11.20;83.15
54980;BME280;44101;50.462;30.432;2022-09-12T06:33:15;97978.28;;;11.29;82.54
54980;BME280;44101;50.462;30.432;2022-09-12T06:35:41;98031.81;;;11.39;83.16
54980;BME280;44101;50.462;30.432;2022-09-12T06:38:07;98032.44;;;11.41;82.62
54980;BME280;44101;50.462;30.432;2022-09-12T06:40:34;98020.19;;;11.38;82.53
54980;BME280;44101;50.462;30.432;2022-09-12T06:43:05;98035.75;;;11.43;82.49
54980;BME280;44101;50.462;30.432;2022-09-12T06:45:31;98080.41;;;11.52;82.41
54980;BME280;44101;50.462;30.432;2022-09-12T06:47:57;98107.16;;;11.61;82.66
54980;BME280;44101;50.462;30.432;2022-09-12T06:50:23;98154.31;;;11.71;81.95
54980;BME280;44101;50.462;30.432;2022-09-12T06:52:49;98207.28;;;11.86;82.47
54980;BME280;44101;50.462;30.432;2022-09-12T06:55:16;98269.81;;;12.03;82.36
54980;BME280;44101;50.462;30.432;2022-09-12T06:57:41;98334.50;;;12.18;82.16
54980;BME280;44101;50.462;30.432;2022-09-12T07:00:10;98380.44;;;12.32;81.65
54980;BME280;44101;50.462;30.432;2022-09-12T07:02:36;98442.00;;;12.50;81.46
54980;BME280;44101;50.462;30.432;2022-09-12T07:05:02;98504.81;;;12.65;81.79
54980;BME280;44101;50.462;30.432;2022-09-12T07:07:28;98556.25;;;12.79;81.13
54980;BME280;44101;50.462;30.432;2022-09-12T07:09:55;98545.63;;;12.77;81.60
54980;BME280;44101;50.462;30.432;2022-09-12T07:12:22;98615.59;;;12.94;81.50
54980;BME280;44101;50.462;30.432;2022-09-12T07:14:48;98671.81;;;13.12;80.81
54980;BME280;44101;50.462;30.432;2022-09-12T07:17:13;98709.31;;;13.22;80.97
54980;BME280;44101;50.462;30.432;2022-09-12T07:19:39;98682.00;;;13.17;80.43
54980;BME280;44101;50.462;30.432;2022-09-12T07:22:05;98667.84;;;13.15;80.83
54980;BME280;44101;50.462;30.432;2022-09-12T07:24:31;98660.56;;;13.15;80.50
54980;BME280;44101;50.462;30.432;2022-09-12T07:26:57;98646.81;;;13.17;79.82
54980;BME280;44101;50.462;30.432;2022-09-12T07:29:23;98680.97;;;13.25;79.68
54980;BME280;44101;50.462;30.432;2022-09-12T07:31:48;98704.31;;;13.32;80.02
54980;BME280;44101;50.462;30.432;2022-09-12T07:34:14;98694.53;;;13.31;79.83
54980;BME280;44101;50.462;30.432;2022-09-12T07:36:39;98775.41;;;13.55;79.91
54980;BME280;44101;50.462;30.432;2022-09-12T07:39:05;98827.72;;;13.69;79.75
54980;BME280;44101;50.462;30.432;2022-09-12T07:41:31;98868.81;;;13.79;79.13
54980;BME280;44101;50.462;30.432;2022-09-12T07:44:00;98932.22;;;13.98;79.29
54980;BME280;44101;50.462;30.432;2022-09-12T07:46:28;98960.63;;;14.09;78.68
54980;BME280;44101;50.462;30.432;2022-09-12T07:48:56;98871.13;;;13.89;78.41
54980;BME280;44101;50.462;30.432;2022-09-12T07:51:23;98743.94;;;13.61;78.60
54980;BME280;44101;50.462;30.432;2022-09-12T07:53:49;98792.72;;;13.74;78.04
54980;BME280;44101;50.462;30.432;2022-09-12T07:56:16;98801.88;;;13.80;78.38
54980;BME280;44101;50.462;30.432;2022-09-12T07:58:42;98831.91;;;13.92;78.09
54980;BME280;44101;50.462;30.432;2022-09-12T08:01:10;98866.13;;;13.99;77.76
54980;BME280;44101;50.462;30.432;2022-09-12T08:03:42;98855.28;;;13.99;77.57
54980;BME280;44101;50.462;30.432;2022-09-12T08:06:19;98795.41;;;13.88;77.49
54980;BME280;44101;50.462;30.432;2022-09-12T08:08:46;98722.66;;;13.71;76.78
54980;BME280;44101;50.462;30.432;2022-09-12T08:11:14;98662.84;;;13.59;77.10
54980;BME280;44101;50.462;30.432;2022-09-12T08:13:41;98617.03;;;13.51;76.77
54980;BME280;44101;50.462;30.432;2022-09-12T08:16:11;98594.09;;;13.47;76.83
54980;BME280;44101;50.462;30.432;2022-09-12T08:18:38;98579.28;;;13.42;76.40
54980;BME280;44101;50.462;30.432;2022-09-12T08:21:15;98614.72;;;13.54;76.38
54980;BME280;44101;50.462;30.432;2022-09-12T08:23:42;98685.34;;;13.73;76.63
54980;BME280;44101;50.462;30.432;2022-09-12T08:26:09;98763.94;;;13.93;76.11
54980;BME280;44101;50.462;30.432;2022-09-12T08:28:35;98838.78;;;14.15;76.64
54980;BME280;44101;50.462;30.432;2022-09-12T08:33:27;99002.78;;;14.59;75.94
54980;BME280;44101;50.462;30.432;2022-09-12T08:38:29;98887.34;;;14.36;75.42
54980;BME280;44101;50.462;30.432;2022-09-12T08:46:49;98833.94;;;14.30;74.71
54980;BME280;44101;50.462;30.432;2022-09-12T08:49:14;98838.72;;;14.35;74.52
54980;BME280;44101;50.462;30.432;2022-09-12T08:51:43;98858.75;;;14.41;74.84
54980;BME280;44101;50.462;30.432;2022-09-12T08:54:20;98830.38;;;14.36;74.40
54980;BME280;44101;50.462;30.432;2022-09-12T08:56:48;98767.59;;;14.26;74.69
54980;BME280;44101;50.462;30.432;2022-09-12T08:59:14;98765.72;;;14.26;73.83
54980;BME280;44101;50.462;30.432;2022-09-12T09:01:43;98800.53;;;14.36;74.37
54980;BME280;44101;50.462;30.432;2022-09-12T09:04:43;98827.22;;;14.46;73.55
54980;BME280;44101;50.462;30.432;2022-09-12T09:10:29;98857.25;;;14.58;73.94
54980;BME280;44101;50.462;30.432;2022-09-12T09:13:25;98869.97;;;14.64;73.78
54980;BME280;44101;50.462;30.432;2022-09-12T09:16:35;98894.16;;;14.73;72.96
54980;BME280;44101;50.462;30.432;2022-09-12T09:19:15;98871.44;;;14.67;73.12
54980;BME280;44101;50.462;30.432;2022-09-12T09:22:15;98775.03;;;14.51;73.10
54980;BME280;44101;50.462;30.432;2022-09-12T09:24:48;98761.69;;;14.49;73.11
54980;BME280;44101;50.462;30.432;2022-09-12T09:27:25;98773.78;;;14.53;72.99
54980;BME280;44101;50.462;30.432;2022-09-12T09:29:53;98804.00;;;14.64;72.50
54980;BME280;44101;50.462;30.432;2022-09-12T09:32:31;98852.03;;;14.77;72.34
54980;BME280;44101;50.462;30.432;2022-09-12T09:35:26;98937.34;;;15.01;72.21
54980;BME280;44101;50.462;30.432;2022-09-12T09:38:03;99016.72;;;15.24;71.83
54980;BME280;44101;50.462;30.432;2022-09-12T09:40:39;99036.75;;;15.29;72.30
54980;BME280;44101;50.462;30.432;2022-09-12T09:43:27;98975.56;;;15.20;72.12
54980;BME280;44101;50.462;30.432;2022-09-12T09:45:53;98901.63;;;15.04;71.44
54980;BME280;44101;50.462;30.432;2022-09-12T09:48:27;98802.50;;;14.82;71.37
54980;BME280;44101;50.462;30.432;2022-09-12T09:50:56;98649.19;;;14.45;71.37
54980;BME280;44101;50.462;30.432;2022-09-12T09:55:54;98416.28;;;13.91;71.02
54980;BME280;44101;50.462;30.432;2022-09-12T09:58:34;98357.59;;;13.78;71.39
54980;BME280;44101;50.462;30.432;2022-09-12T10:01:04;98335.13;;;13.71;71.31
54980;BME280;44101;50.462;30.432;2022-09-12T10:03:38;98296.63;;;13.62;71.04
54980;BME280;44101;50.462;30.432;2022-09-12T10:06:22;98229.22;;;13.47;70.88
54980;BME280;44101;50.462;30.432;2022-09-12T10:08:49;98124.66;;;13.21;71.31
54980;BME280;44101;50.462;30.432;2022-09-12T10:18:50;97761.34;;;12.25;71.30
54980;BME280;44101;50.462;30.432;2022-09-12T10:23:46;97699.16;;;12.06;71.60
54980;BME280;44101;50.462;30.432;2022-09-12T10:26:18;97693.13;;;12.04;71.47
54980;BME280;44101;50.462;30.432;2022-09-12T10:28:49;97696.06;;;12.03;71.58
54980;BME280;44101;50.462;30.432;2022-09-12T10:31:31;97703.94;;;12.04;71.88
54980;BME280;44101;50.462;30.432;2022-09-12T10:33:59;97662.47;;;11.92;71.79
54980;BME280;44101;50.462;30.432;2022-09-12T10:36:37;97664.59;;;11.90;71.75
54980;BME280;44101;50.462;30.432;2022-09-12T10:39:04;97637.03;;;11.81;72.34
54980;BME280;44101;50.462;30.432;2022-09-12T10:41:35;97612.78;;;11.74;71.81
54980;BME280;44101;50.462;30.432;2022-09-12T10:44:07;97605.38;;;11.69;71.67
54980;BME280;44101;50.462;30.432;2022-09-12T10:46:34;97589.00;;;11.64;72.25
54980;BME280;44101;50.462;30.432;2022-09-12T10:51:45;97507.03;;;11.40;72.04
54980;BME280;44101;50.462;30.432;2022-09-12T10:54:12;97515.16;;;11.40;72.46
54980;BME280;44101;50.462;30.432;2022-09-12T10:56:51;97531.09;;;11.41;72.68
54980;BME280;44101;50.462;30.432;2022-09-12T11:02:00;97526.16;;;11.38;72.70
54980;BME280;44101;50.462;30.432;2022-09-12T11:12:49;97683.91;;;11.68;73.01
54980;BME280;44101;50.462;30.432;2022-09-12T11:15:39;97746.75;;;11.82;72.70
54980;BME280;44101;50.462;30.432;2022-09-12T11:23:35;97909.03;;;12.19;73.57
54980;BME280;44101;50.462;30.432;2022-09-12T11:40:41;98052.91;;;12.54;73.11
54980;BME280;44101;50.462;30.432;2022-09-12T11:45:43;98122.72;;;12.70;73.27
54980;BME280;44101;50.462;30.432;2022-09-12T11:48:28;98157.41;;;12.80;73.67
54980;BME280;44101;50.462;30.432;2022-09-12T11:50:59;98205.66;;;12.90;73.87
54980;BME280;44101;50.462;30.432;2022-09-12T11:53:32;98230.78;;;12.97;73.61
54980;BME280;44101;50.462;30.432;2022-09-12T11:56:08;98248.25;;;13.01;73.30
54980;BME280;44101;50.462;30.432;2022-09-12T11:58:40;98264.69;;;13.07;73.28
54980;BME280;44101;50.462;30.432;2022-09-12T12:01:30;98274.84;;;13.11;73.73
54980;BME280;44101;50.462;30.432;2022-09-12T12:04:00;98283.38;;;13.15;73.34
54980;BME280;44101;50.462;30.432;2022-09-12T12:06:44;98296.69;;;13.16;73.58
54980;BME280;44101;50.462;30.432;2022-09-12T12:09:12;98267.78;;;13.10;73.64
54980;BME280;44101;50.462;30.432;2022-09-12T12:11:49;98246.16;;;13.03;73.30
54980;BME280;44101;50.462;30.432;2022-09-12T12:14:19;98233.69;;;13.02;72.86
54980;BME280;44101;50.462;30.432;2022-09-12T12:16:47;98237.44;;;13.01;72.93
54980;BME280;44101;50.462;30.432;2022-09-12T12:21:47;98266.53;;;13.13;73.26
54980;BME280;44101;50.462;30.432;2022-09-12T12:29:36;98327.66;;;13.27;72.29
54980;BME280;44101;50.462;30.432;2022-09-12T12:47:58;98329.72;;;13.32;72.26
54980;BME280;44101;50.462;30.432;2022-09-12T12:50:27;98307.91;;;13.27;72.82
54980;BME280;44101;50.462;30.432;2022-09-12T12:55:29;98245.91;;;13.12;72.82
54980;BME280;44101;50.462;30.432;2022-09-12T12:57:59;98224.06;;;13.07;72.73
54980;BME280;44101;50.462;30.432;2022-09-12T13:00:29;98195.19;;;13.00;72.84
54980;BME280;44101;50.462;30.432;2022-09-12T13:05:40;98145.50;;;12.88;72.29
54980;BME280;44101;50.462;30.432;2022-09-12T13:08:28;98119.31;;;12.82;72.84
54980;BME280;44101;50.462;30.432;2022-09-12T13:11:03;98104.56;;;12.77;72.78
54980;BME280;44101;50.462;30.432;2022-09-12T13:13:39;98081.09;;;12.71;72.46
54980;BME280;44101;50.462;30.432;2022-09-12T13:16:08;98070.69;;;12.68;73.02
54980;BME280;44101;50.462;30.432;2022-09-12T13:18:45;98062.81;;;12.67;72.29
54980;BME280;44101;50.462;30.432;2022-09-12T13:21:14;98054.31;;;12.63;72.34
54980;BME280;44101;50.462;30.432;2022-09-12T13:23:40;98042.88;;;12.61;72.52
54980;BME280;44101;50.462;30.432;2022-09-12T13:26:21;98037.06;;;12.57;72.66
54980;BME280;44101;50.462;30.432;2022-09-12T13:28:47;98022.13;;;12.55;72.65
54980;BME280;44101;50.462;30.432;2022-09-12T13:31:24;98013.41;;;12.53;73.28
54980;BME280;44101;50.462;30.432;2022-09-12T13:33:55;98004.06;;;12.48;72.54
54980;BME280;44101;50.462;30.432;2022-09-12T13:39:39;97993.91;;;12.44;73.51
54980;BME280;44101;50.462;30.432;2022-09-12T13:42:39;97980.00;;;12.40;73.04
54980;BME280;44101;50.462;30.432;2022-09-12T13:45:24;97965.25;;;12.36;73.13
54980;BME280;44101;50.462;30.432;2022-09-12T13:47:57;97952.41;;;12.31;73.31
54980;BME280;44101;50.462;30.432;2022-09-12T13:50:26;97941.22;;;12.28;73.45
54980;BME280;44101;50.462;30.432;2022-09-12T13:52:57;97939.53;;;12.27;72.99
54980;BME280;44101;50.462;30.432;2022-09-12T13:55:32;97926.47;;;12.23;73.17
54980;BME280;44101;50.462;30.432;2022-09-12T13:58:01;97918.78;;;12.20;72.97
54980;BME280;44101;50.462;30.432;2022-09-12T14:00:28;97906.78;;;12.16;73.63
54980;BME280;44101;50.462;30.432;2022-09-12T14:02:56;97909.47;;;12.16;73.10
54980;BME280;44101;50.462;30.432;2022-09-12T14:05:42;97910.53;;;12.15;73.54
54980;BME280;44101;50.462;30.432;2022-09-12T14:08:11;97910.75;;;12.14;73.25
54980;BME280;44101;50.462;30.432;2022-09-12T14:10:43;97897.91;;;12.09;73.61
54980;BME280;44101;50.462;30.432;2022-09-12T14:13:12;97883.97;;;12.05;73.26
54980;BME280;44101;50.462;30.432;2022-09-12T14:15:43;97876.09;;;12.04;73.19
54980;BME280;44101;50.462;30.432;2022-09-12T14:20:47;97831.25;;;11.89;73.68
54980;BME280;44101;50.462;30.432;2022-09-12T14:23:28;97814.28;;;11.82;74.07
54980;BME280;44101;50.462;30.432;2022-09-12T14:25:55;97804.75;;;11.79;73.80
54980;BME280;44101;50.462;30.432;2022-09-12T14:28:25;97801.25;;;11.79;74.08
54980;BME280;44101;50.462;30.432;2022-09-12T14:31:02;97800.59;;;11.77;74.16
54980;BME280;44101;50.462;30.432;2022-09-12T14:38:46;97784.69;;;11.68;74.75
54980;BME280;44101;50.462;30.432;2022-09-12T14:41:40;97777.00;;;11.65;74.93
54980;BME280;44101;50.462;30.432;2022-09-12T14:44:08;97772.88;;;11.63;74.48
54980;BME280;44101;50.462;30.432;2022-09-12T14:46:36;97769.56;;;11.61;74.91
54980;BME280;44101;50.462;30.432;2022-09-12T14:51:34;97775.81;;;11.61;75.00
54980;BME280;44101;50.462;30.432;2022-09-12T14:54:01;97790.97;;;11.62;75.63
54980;BME280;44101;50.462;30.432;2022-09-12T14:56:51;97798.03;;;11.63;75.63
54980;BME280;44101;50.462;30.432;2022-09-12T15:04:54;97809.88;;;11.62;75.65
54980;BME280;44101;50.462;30.432;2022-09-12T15:10:16;97813.00;;;11.59;75.88
54980;BME280;44101;50.462;30.432;2022-09-12T15:12:43;97808.66;;;11.58;75.84
54980;BME280;44101;50.462;30.432;2022-09-12T15:15:17;97802.66;;;11.56;75.70
54980;BME280;44101;50.462;30.432;2022-09-12T15:17:43;97795.81;;;11.53;76.61
54980;BME280;44101;50.462;30.432;2022-09-12T15:20:09;97805.56;;;11.54;76.39
54980;BME280;44101;50.462;30.432;2022-09-12T15:22:36;97806.16;;;11.56;75.76
54980;BME280;44101;50.462;30.432;2022-09-12T15:25:03;97810.97;;;11.54;76.29
54980;BME280;44101;50.462;30.432;2022-09-12T15:27:29;97805.19;;;11.51;76.50
54980;BME280;44101;50.462;30.432;2022-09-12T15:29:55;97801.88;;;11.49;76.86
54980;BME280;44101;50.462;30.432;2022-09-12T15:32:29;97801.88;;;11.49;76.83
54980;BME280;44101;50.462;30.432;2022-09-12T15:34:55;97804.78;;;11.47;76.47
54980;BME280;44101;50.462;30.432;2022-09-12T15:37:22;97803.13;;;11.46;76.79
54980;BME280;44101;50.462;30.432;2022-09-12T15:39:48;97814.75;;;11.47;76.65
54980;BME280;44101;50.462;30.432;2022-09-12T15:42:15;97798.75;;;11.45;76.52
54980;BME280;44101;50.462;30.432;2022-09-12T15:44:41;97807.09;;;11.43;76.84
54980;BME280;44101;50.462;30.432;2022-09-12T15:47:11;97802.75;;;11.42;77.21
54980;BME280;44101;50.462;30.432;2022-09-12T15:49:40;97801.06;;;11.41;76.84